METAR Data
IDs: Format: Raw Decoded Include TAF

Data at: 1626 UTC 03 Jul 2020

KIKV 031615Z AUTO 10006G12KT 10SM CLR 29/20 A3007 RMK AO2
KIKV 031555Z AUTO 11010G15KT 10SM CLR 28/19 A3007 RMK AO2
KIKV 031535Z AUTO 09008G14KT 10SM CLR 28/20 A3007 RMK AO2
KIKV 031515Z AUTO 11010KT 10SM CLR 28/20 A3007 RMK AO2
KIKV 031455Z AUTO 10009KT 10SM CLR 27/20 A3008 RMK AO2
KIKV 031435Z AUTO 11007KT 10SM FEW095 27/20 A3009 RMK AO2
KIKV 031415Z AUTO 12006KT 10SM BKN095 27/21 A3009 RMK AO2
KIKV 031355Z AUTO 07004KT 10SM SCT095 25/21 A3009 RMK AO2
KIKV 031335Z AUTO 08003KT 10SM SCT065 SCT080 SCT095 24/21 A3009 RMK AO2
KIKV 031315Z AUTO 00000KT 9SM SCT065 BKN095 23/21 A3009 RMK AO2
KIKV 031255Z AUTO 00000KT 10SM FEW065 BKN095 22/21 A3009 RMK AO2
KIKV 031235Z AUTO 02005KT 9SM SCT065 BKN090 21/20 A3009 RMK AO2
KIKV 031215Z AUTO 01006KT 9SM SCT085 21/20 A3009 RMK AO2
KIKV 031155Z AUTO 03004KT 9SM FEW090 21/20 A3008 RMK AO2
KIKV 031135Z AUTO 00000KT 9SM BKN090 21/20 A3008 RMK AO2
KIKV 031115Z AUTO 00000KT 9SM FEW095 21/20 A3008 RMK AO2
KIKV 031055Z AUTO 00000KT 9SM CLR 21/20 A3007 RMK AO2
KIKV 031035Z AUTO 00000KT 9SM CLR 21/20 A3007 RMK AO2
KIKV 031015Z AUTO 03004KT 21/20 A3007 RMK AO2
KIKV 030955Z AUTO 00000KT 10SM BKN085 21/20 A3007 RMK AO2
KIKV 030935Z AUTO 02003KT 10SM CLR 21/20 A3007 RMK AO2
KIKV 030915Z AUTO 00000KT 8SM CLR 21/20 A3006 RMK AO2
KIKV 030855Z AUTO 02005KT 8SM CLR 21/20 A3005 RMK AO2
KIKV 030835Z AUTO 03003KT 5SM BR CLR 21/20 A3005 RMK AO2
KIKV 030815Z AUTO 00000KT 8SM CLR 21/20 A3005 RMK AO2
KIKV 030755Z AUTO 00000KT 9SM CLR 21/20 A3004 RMK AO2
KIKV 030735Z AUTO 00000KT 10SM CLR 22/20 A3004 RMK AO2
KIKV 030715Z AUTO 00000KT 9SM CLR 22/21 A3004 RMK AO2
KIKV 030655Z AUTO 00000KT 10SM CLR 23/21 A3004 RMK AO2
KIKV 030635Z AUTO 00000KT 9SM CLR 23/21 A3004 RMK AO2
KIKV 030615Z AUTO 00000KT 9SM CLR 22/21 A3004 RMK AO2
KIKV 030555Z AUTO 00000KT 9SM CLR 22/21 A3004 RMK AO2
KIKV 030535Z AUTO 00000KT 9SM SCT085 23/22 A3006 RMK AO2
KIKV 030515Z AUTO 00000KT 9SM OVC080 24/22 A3007 RMK AO2
KIKV 030455Z AUTO 00000KT 10SM BKN080 24/22 A3007 RMK AO2
KIKV 030435Z AUTO 00000KT 9SM SCT080 23/22 A3007 RMK AO2
KIKV 030415Z AUTO 00000KT 10SM SCT080 24/22 A3006 RMK AO2
KIKV 030355Z AUTO 00000KT 10SM FEW080 24/22 A3005 RMK AO2
KIKV 030335Z AUTO 00000KT 10SM FEW075 24/22 A3005 RMK AO2
KIKV 030315Z AUTO 00000KT 10SM CLR 25/22 A3004 RMK AO2
KIKV 030255Z AUTO 00000KT 10SM CLR 25/22 A3002 RMK AO2
KIKV 030235Z AUTO 12004KT 10SM CLR 26/22 A3000 RMK AO2
KIKV 030215Z AUTO 11005KT 10SM CLR 26/22 A2999 RMK AO2
KIKV 030155Z AUTO 11005KT 10SM CLR 27/23 A2999 RMK AO2
KIKV 030135Z AUTO 10005KT 10SM CLR 27/23 A2999 RMK AO2
KIKV 030115Z AUTO 10005KT 10SM CLR 28/23 A2999 RMK AO2
KIKV 030055Z AUTO 09004KT 10SM CLR 28/23 A3000 RMK AO2
KIKV 030035Z AUTO 09006KT 10SM CLR 29/23 A3000 RMK AO2
KIKV 030015Z AUTO 09005KT 10SM FEW039 FEW050 SCT080 28/23 A3000 RMK AO2
KIKV 022355Z AUTO 09009KT 10SM FEW039 SCT044 BKN050 30/23 A3000 RMK AO2
KIKV 022335Z AUTO 09006KT 10SM CLR 30/22 A3001 RMK AO2
KIKV 022315Z AUTO 09006KT 9SM CLR 31/22 A3001 RMK AO2
KIKV 022255Z AUTO 12008KT 10SM CLR 31/22 A3001 RMK AO2
KIKV 022235Z AUTO 10008KT 10SM FEW037 30/23 A3002 RMK AO2
KIKV 022215Z AUTO VRB06KT 10SM FEW037 31/23 A3002 RMK AO2
KIKV 022155Z AUTO 06006KT 10SM FEW038 FEW065 31/23 A3002 RMK AO2
KIKV 022135Z AUTO 10006KT 10SM FEW037 31/23 A3002 RMK AO2
KIKV 022115Z AUTO 10004G10KT 10SM CLR 30/23 A3003 RMK AO2
KIKV 022055Z AUTO 09004KT 9SM FEW037 30/23 A3003 RMK AO2
KIKV 022035Z AUTO 11008KT 10SM FEW037 30/23 A3002 RMK AO2
KIKV 022015Z AUTO 12007KT 10SM FEW036 31/23 A3002 RMK AO2
KIKV 021955Z AUTO 13007KT 9SM FEW037 30/23 A3003 RMK AO2
KIKV 021935Z AUTO 12008KT 10SM FEW034 FEW040 30/22 A3003 RMK AO2
KIKV 021915Z AUTO 11007KT 10SM SCT035 30/23 A3003 RMK AO2
KIKV 021855Z AUTO 11005KT 10SM FEW033 FEW042 30/23 A3003 RMK AO2
KIKV 021835Z AUTO 07008KT 10SM FEW030 FEW037 SCT042 30/23 A3003 RMK AO2
KIKV 021815Z AUTO 09006KT 9SM FEW028 SCT033 SCT042 29/23 A3004 RMK AO2
KIKV 021755Z AUTO 10005KT 9SM SCT027 SCT040 29/23 A3004 RMK AO2
KIKV 021735Z AUTO 14005KT 9SM SCT025 BKN030 BKN035 29/23 A3005 RMK AO2
KIKV 021715Z AUTO 00000KT 10SM SCT026 BKN033 BKN039 28/23 A3006 RMK AO2
KIKV 021655Z AUTO 00000KT 10SM SCT022 BKN029 28/23 A3006 RMK AO2
KIKV 021635Z AUTO 17004KT 9SM SCT020 SCT027 28/23 A3006 RMK AO2
KIKV 021615Z AUTO 00000KT 9SM SCT018 SCT025 28/23 A3006 RMK AO2
KIKV 021555Z AUTO VRB04KT 9SM BKN019 27/23 A3006 RMK AO2
KIKV 021535Z AUTO 00000KT 10SM SCT019 27/23 A3006 RMK AO2
KIKV 021515Z AUTO 05003KT 10SM SCT019 26/23 A3006 RMK AO2
KIKV 021455Z AUTO 00000KT 9SM FEW013 26/23 A3006 RMK AO2
KIKV 021435Z AUTO VRB04KT 9SM FEW013 25/23 A3006 RMK AO2
KIKV 021415Z AUTO 12005KT 8SM FEW008 25/23 A3005 RMK AO2
KIKV 021355Z AUTO VRB04KT 7SM BKN007 24/23 A3005 RMK AO2
KIKV 021335Z AUTO 00000KT 5SM BR OVC006 23/23 A3004 RMK AO2
KIKV 021315Z AUTO 00000KT 4SM BR OVC003 22/22 A3004 RMK AO2
KIKV 021255Z AUTO 04003KT 3/4SM BR OVC002 21/21 A3003 RMK AO2
KIKV 021235Z AUTO 00000KT 1/4SM FG OVC002 21/21 A3003 RMK AO2
KIKV 021215Z AUTO 00000KT M1/4SM FG OVC002 21/20 A3003 RMK AO2
KIKV 021155Z AUTO 00000KT 1 1/2SM BR OVC002 21/20 A3003 RMK AO2
KIKV 021135Z AUTO 00000KT 1 3/4SM BR OVC002 20/20 A3002 RMK AO2
KIKV 021115Z AUTO 00000KT 1 3/4SM BR BKN002 20/20 A3003 RMK AO2
KIKV 021055Z AUTO 00000KT 1 3/4SM BR CLR 20/20 A3002 RMK AO2
KIKV 021035Z AUTO 00000KT 3SM BR CLR 20/20 A3002 RMK AO2
KIKV 021015Z AUTO 00000KT 4SM BR CLR 20/20 A3001 RMK AO2
KIKV 020955Z AUTO 00000KT 4SM BR CLR 20/20 A3001 RMK AO2
KIKV 020935Z AUTO 02003KT 3SM BR CLR 20/19 A3000 RMK AO2
KIKV 020915Z AUTO 01004KT 4SM BR CLR 20/19 A3000 RMK AO2
KIKV 020855Z AUTO 00000KT 4SM BR CLR 20/19 A2999 RMK AO2
KIKV 020835Z AUTO 00000KT 6SM BR CLR 20/19 A2999 RMK AO2
KIKV 020815Z AUTO 00000KT 5SM BR CLR 20/20 A2999 RMK AO2
KIKV 020755Z AUTO 02003KT 7SM CLR 20/20 A2999 RMK AO2
KIKV 020735Z AUTO 01004KT 8SM CLR 20/20 A2999 RMK AO2
KIKV 020715Z AUTO 02003KT 7SM CLR 20/20 A2998 RMK AO2
KIKV 020655Z AUTO 02003KT 7SM CLR 20/20 A2999 RMK AO2
KIKV 020635Z AUTO 00000KT 9SM CLR 21/20 A2999 RMK AO2
KIKV 020615Z AUTO 00000KT 9SM CLR 21/20 A2999 RMK AO2
KIKV 020555Z AUTO 01004KT 10SM CLR 21/20 A2998 RMK AO2
KIKV 020535Z AUTO 00000KT 10SM CLR 21/20 A2998 RMK AO2
KIKV 020455Z AUTO 01003KT 9SM CLR 21/20 A2997 RMK AO2
KIKV 020435Z AUTO 02003KT 10SM CLR 22/21 A2997 RMK AO2